Time;durP1;ratioP1;P1;durP2;ratioP2;P2;SDS_P1;SDS_P2;PMS_P1;PMS_P2;Temp;Humidity;BMP_temperature;BMP_pressure;BME280_temperature;BME280_humidity;BME280_pressure;Samples;Min_cycle;Max_cycle;Signal;HPM_P1;HPM_P2
2021/06/11 00:01:55;;;;;;;10.30;7.97;;;20.80;71.50;;;;;;5096741;28;20533;-79
2021/06/11 00:04:21;;;;;;;7.38;6.47;;;20.80;71.80;;;;;;5096848;28;20040;-79
2021/06/11 00:06:47;;;;;;;9.55;7.20;;;20.70;71.80;;;;;;5106295;28;20056;-79
2021/06/11 00:09:14;;;;;;;7.60;6.88;;;20.70;72.20;;;;;;5115288;28;20027;-79
2021/06/11 00:11:44;;;;;;;9.55;6.35;;;20.70;72.40;;;;;;5097046;28;20034;-79
2021/06/11 00:14:11;;;;;;;8.18;6.90;;;20.60;72.80;;;;;;5105560;28;20020;-79
2021/06/11 00:16:36;;;;;;;8.05;6.90;;;20.60;72.60;;;;;;5094678;28;20051;-79
2021/06/11 00:19:02;;;;;;;13.43;7.00;;;20.60;72.80;;;;;;5095965;28;20062;-79
2021/06/11 00:21:28;;;;;;;10.68;7.32;;;20.50;72.90;;;;;;5112856;28;20032;-78
2021/06/11 00:23:54;;;;;;;8.73;7.38;;;20.50;73.30;;;;;;5095677;28;20096;-79
2021/06/11 00:26:20;;;;;;;8.32;7.50;;;20.40;73.40;;;;;;5114899;28;20036;-79
2021/06/11 00:28:46;;;;;;;9.48;7.57;;;20.40;73.60;;;;;;5079039;28;20020;-79
2021/06/11 00:31:11;;;;;;;9.43;7.20;;;20.30;73.90;;;;;;5094257;28;20016;-79
2021/06/11 00:33:37;;;;;;;8.10;6.80;;;20.30;74.00;;;;;;5110325;28;20443;-79
2021/06/11 00:36:03;;;;;;;8.10;7.30;;;20.30;74.10;;;;;;5095059;28;20020;-79
2021/06/11 00:38:31;;;;;;;8.88;7.38;;;20.30;74.20;;;;;;5092029;28;20419;-79
2021/06/11 00:40:57;;;;;;;9.70;7.90;;;20.30;74.20;;;;;;5112366;28;20024;-79
2021/06/11 00:43:22;;;;;;;8.95;8.10;;;20.20;74.10;;;;;;5076280;28;20032;-79
2021/06/11 00:45:48;;;;;;;11.68;7.25;;;20.20;74.20;;;;;;5094577;28;20020;-79
2021/06/11 00:48:14;;;;;;;10.90;8.95;;;20.20;74.30;;;;;;5092893;28;20028;-79
2021/06/11 00:50:39;;;;;;;10.02;8.27;;;20.20;74.40;;;;;;5112581;28;20069;-79
2021/06/11 00:53:10;;;;;;;11.38;8.07;;;20.10;74.60;;;;;;5113630;28;20045;-78
2021/06/11 00:55:37;;;;;;;12.93;9.02;;;20.10;74.80;;;;;;5114661;28;20024;-79
2021/06/11 00:58:03;;;;;;;10.65;8.43;;;20.10;74.90;;;;;;5092878;28;20032;-79
2021/06/11 01:00:29;;;;;;;14.13;9.88;;;20.00;74.90;;;;;;5076237;28;20508;-79
2021/06/11 01:02:55;;;;;;;13.77;9.23;;;20.00;75.10;;;;;;5111856;28;20040;-79
2021/06/11 01:05:21;;;;;;;11.63;9.07;;;20.00;75.20;;;;;;5112201;28;20020;-79
2021/06/11 01:07:49;;;;;;;15.75;9.27;;;19.90;75.30;;;;;;5106707;28;20032;-79
2021/06/11 01:10:16;;;;;;;10.32;9.18;;;19.90;75.40;;;;;;5101529;28;20016;-79
2021/06/11 01:12:42;;;;;;;12.13;9.35;;;19.80;75.60;;;;;;5113493;28;20044;-79
2021/06/11 01:15:09;;;;;;;9.50;8.57;;;19.80;75.90;;;;;;5095817;28;20106;-79
2021/06/11 01:17:36;;;;;;;10.45;8.98;;;19.70;76.00;;;;;;5099125;28;20118;-79
2021/06/11 01:20:07;;;;;;;11.18;8.80;;;19.70;76.00;;;;;;5095955;28;20031;-79
2021/06/11 01:22:51;;;;;;;9.98;8.60;;;19.70;76.20;;;;;;5112667;28;20027;-79
2021/06/11 01:25:57;;;;;;;11.02;8.80;;;19.70;76.40;;;;;;5097147;28;20131;-79
2021/06/11 01:28:26;;;;;;;10.48;9.32;;;19.70;76.40;;;;;;5089921;28;20388;-79
2021/06/11 01:30:54;;;;;;;11.15;9.70;;;19.60;76.50;;;;;;5111680;28;20016;-78
2021/06/11 01:33:21;;;;;;;13.90;10.02;;;19.60;76.60;;;;;;5095302;28;20030;-79
2021/06/11 01:35:54;;;;;;;13.85;9.63;;;19.60;76.70;;;;;;5079617;28;20473;-79
2021/06/11 01:38:22;;;;;;;12.45;10.10;;;19.50;76.90;;;;;;5092964;28;20024;-79
2021/06/11 01:40:49;;;;;;;13.23;9.98;;;19.50;77.00;;;;;;5104412;28;20043;-79
2021/06/11 01:43:17;;;;;;;12.40;10.63;;;19.50;77.10;;;;;;5113554;28;20039;-79
2021/06/11 01:45:43;;;;;;;11.75;10.60;;;19.50;77.40;;;;;;5112575;28;20027;-79
2021/06/11 01:48:10;;;;;;;14.13;10.63;;;19.50;77.70;;;;;;5107562;28;20473;-79
2021/06/11 01:50:36;;;;;;;13.57;10.48;;;19.40;77.90;;;;;;5096237;28;20019;-79
2021/06/11 01:53:05;;;;;;;12.25;10.20;;;19.50;78.00;;;;;;5073505;28;20023;-79
2021/06/11 01:55:33;;;;;;;11.07;9.75;;;19.50;78.10;;;;;;5093087;28;20020;-79
2021/06/11 01:58:00;;;;;;;12.25;9.48;;;19.50;78.30;;;;;;5094023;28;20071;-79
2021/06/11 02:00:26;;;;;;;11.98;10.68;;;19.50;78.40;;;;;;5093336;28;20056;-79
2021/06/11 02:02:53;;;;;;;12.45;10.93;;;19.50;78.50;;;;;;5088397;28;20392;-79
2021/06/11 02:05:19;;;;;;;13.38;11.95;;;19.50;78.50;;;;;;5088904;28;20035;-79
2021/06/11 02:07:47;;;;;;;14.75;12.55;;;19.50;78.50;;;;;;5088623;28;20031;-79
2021/06/11 02:10:16;;;;;;;15.18;12.05;;;19.50;78.60;;;;;;5109331;28;20020;-79
2021/06/11 02:12:42;;;;;;;17.17;11.70;;;19.50;78.70;;;;;;5115745;28;20040;-79
2021/06/11 02:15:10;;;;;;;13.75;11.80;;;19.40;78.60;;;;;;5093387;28;20020;-79
2021/06/11 02:17:39;;;;;;;15.93;12.35;;;19.40;78.70;;;;;;5107816;28;20020;-79
2021/06/11 02:20:09;;;;;;;16.33;12.38;;;19.40;78.80;;;;;;5076457;28;20032;-79
2021/06/11 02:22:37;;;;;;;14.27;12.05;;;19.30;78.90;;;;;;5101252;28;20024;-79
2021/06/11 02:25:04;;;;;;;15.20;12.88;;;19.30;79.00;;;;;;5097585;28;20482;-79
2021/06/11 02:27:33;;;;;;;13.90;12.27;;;19.20;79.10;;;;;;5090412;28;20484;-79
2021/06/11 02:29:59;;;;;;;14.63;12.70;;;19.20;79.60;;;;;;5103776;28;20474;-79
2021/06/11 02:32:26;;;;;;;16.38;13.02;;;19.10;79.60;;;;;;5109419;28;20031;-78
2021/06/11 02:34:52;;;;;;;16.73;12.95;;;19.10;79.60;;;;;;5093876;28;20346;-79
2021/06/11 02:37:18;;;;;;;16.48;12.32;;;19.00;79.80;;;;;;5100025;28;20074;-79
2021/06/11 02:39:44;;;;;;;17.58;12.73;;;19.00;80.00;;;;;;5091486;28;20031;-79
2021/06/11 02:42:11;;;;;;;17.92;13.02;;;19.00;80.20;;;;;;5087986;28;20047;-79
2021/06/11 02:44:43;;;;;;;16.80;12.48;;;18.90;80.30;;;;;;5096988;28;20488;-78
2021/06/11 02:47:16;;;;;;;15.95;13.20;;;18.90;80.50;;;;;;5108920;28;20034;-79
2021/06/11 02:49:42;;;;;;;14.95;13.35;;;18.90;80.50;;;;;;5129411;28;20019;-80
2021/06/11 02:52:08;;;;;;;16.58;12.00;;;18.90;80.50;;;;;;5125389;28;20024;-79
2021/06/11 02:54:42;;;;;;;14.68;12.38;;;18.90;80.50;;;;;;5128207;28;20038;-79
2021/06/11 02:57:32;;;;;;;13.90;10.95;;;18.90;80.70;;;;;;5115277;28;20024;-78
2021/06/11 03:00:04;;;;;;;12.25;10.95;;;18.80;80.60;;;;;;5107239;28;20020;-79
2021/06/11 03:02:33;;;;;;;13.20;10.35;;;18.80;80.60;;;;;;5104982;28;20078;-79
2021/06/11 03:05:00;;;;;;;12.68;11.38;;;18.80;80.40;;;;;;5128901;28;20112;-79
2021/06/11 03:07:29;;;;;;;11.98;10.57;;;18.80;80.60;;;;;;5128687;28;20126;-80
2021/06/11 03:09:59;;;;;;;13.35;10.75;;;18.80;80.60;;;;;;5126170;28;20054;-83
2021/06/11 03:12:25;;;;;;;15.20;10.10;;;18.70;80.60;;;;;;5097851;28;20112;-83
2021/06/11 03:14:53;;;;;;;13.18;10.35;;;18.70;80.60;;;;;;5116558;28;20019;-83
2021/06/11 03:17:22;;;;;;;11.63;10.35;;;18.70;80.60;;;;;;5098025;28;20028;-83
2021/06/11 03:19:52;;;;;;;16.08;10.32;;;18.70;80.60;;;;;;5116264;28;20081;-83
2021/06/11 03:22:24;;;;;;;14.98;10.50;;;18.60;80.60;;;;;;5097930;28;20024;-83
2021/06/11 03:25:04;;;;;;;10.55;9.45;;;18.60;80.70;;;;;;5093008;28;20052;-83
2021/06/11 03:27:41;;;;;;;10.93;9.80;;;18.60;80.80;;;;;;5097620;28;20027;-82
2021/06/11 03:30:10;;;;;;;13.73;9.90;;;18.60;80.90;;;;;;5115224;28;20095;-83
2021/06/11 03:32:41;;;;;;;11.02;9.80;;;18.50;80.80;;;;;;5095652;28;20028;-83
2021/06/11 03:35:14;;;;;;;11.32;10.13;;;18.50;80.90;;;;;;5095502;28;20027;-83
2021/06/11 03:37:40;;;;;;;15.68;9.85;;;18.50;81.00;;;;;;5095628;28;20473;-83
2021/06/11 03:40:12;;;;;;;12.23;9.65;;;18.50;81.10;;;;;;5101712;28;20016;-83
2021/06/11 03:42:39;;;;;;;12.45;9.13;;;18.40;81.20;;;;;;5108111;28;20051;-83
2021/06/11 03:45:06;;;;;;;14.63;10.27;;;18.40;81.10;;;;;;5110898;28;20121;-83
2021/06/11 03:47:35;;;;;;;10.65;9.40;;;18.40;81.30;;;;;;5097407;28;20480;-82
2021/06/11 03:50:02;;;;;;;10.65;9.18;;;18.40;81.30;;;;;;5115798;28;20068;-83
2021/06/11 03:52:32;;;;;;;10.93;9.35;;;18.40;81.30;;;;;;5097362;28;20166;-83
2021/06/11 03:55:23;;;;;;;10.07;9.07;;;18.40;81.40;;;;;;5115642;28;20055;-82
2021/06/11 03:57:53;;;;;;;12.48;9.43;;;18.40;81.60;;;;;;5095490;28;20035;-83
2021/06/11 04:00:21;;;;;;;12.23;9.48;;;18.40;81.60;;;;;;5096962;28;20137;-83
2021/06/11 04:02:47;;;;;;;;;;;18.40;82.10;;;;;;5115805;28;20515;-83
2021/06/11 04:05:15;;;;;;;11.77;9.40;;;18.40;81.10;;;;;;5115388;28;19904;-83
2021/06/11 04:07:51;;;;;;;12.30;9.55;;;18.40;82.10;;;;;;5115087;28;20023;-83
2021/06/11 04:10:47;;;;;;;11.57;9.38;;;18.40;81.80;;;;;;5115240;28;20031;-83
2021/06/11 04:13:19;;;;;;;10.85;9.73;;;18.40;81.80;;;;;;5102695;28;20535;-83
2021/06/11 04:15:48;;;;;;;14.55;10.52;;;18.40;81.60;;;;;;5094798;28;20555;-83
2021/06/11 04:18:18;;;;;;;13.15;10.15;;;18.50;81.60;;;;;;5094888;28;20154;-83
2021/06/11 04:20:47;;;;;;;12.32;9.57;;;18.50;81.50;;;;;;5094705;28;20020;-83
2021/06/11 04:23:15;;;;;;;12.90;10.18;;;18.50;82.10;;;;;;5060241;28;20541;-82
2021/06/11 04:25:43;;;;;;;12.38;10.07;;;18.50;81.40;;;;;;5103621;28;20415;-83
2021/06/11 04:28:11;;;;;;;12.70;10.13;;;18.50;81.80;;;;;;5089740;28;20036;-83
2021/06/11 04:30:36;;;;;;;16.17;10.50;;;18.60;81.30;;;;;;5076754;28;20024;-83
2021/06/11 04:33:18;;;;;;;13.15;11.02;;;18.60;81.30;;;;;;5094414;28;20278;-83
2021/06/11 04:35:44;;;;;;;17.75;11.13;;;18.60;81.50;;;;;;5076207;28;20036;-82
2021/06/11 04:38:10;;;;;;;16.67;11.50;;;18.60;81.20;;;;;;5094378;28;20053;-82
2021/06/11 04:40:36;;;;;;;23.48;11.80;;;18.70;81.30;;;;;;5094338;28;20144;-82
2021/06/11 04:43:01;;;;;;;18.30;12.05;;;18.70;81.20;;;;;;5096493;28;20062;-82
2021/06/11 04:45:27;;;;;;;16.65;10.98;;;18.80;81.10;;;;;;5096141;28;20035;-81
2021/06/11 04:47:52;;;;;;;12.13;10.50;;;18.80;81.00;;;;;;5114530;28;20055;-81
2021/06/11 04:50:18;;;;;;;14.23;11.38;;;18.80;80.80;;;;;;5083501;28;20495;-82
2021/06/11 04:52:44;;;;;;;14.07;10.65;;;18.90;80.70;;;;;;5096104;28;20036;-82
2021/06/11 04:55:10;;;;;;;15.18;10.98;;;18.90;80.60;;;;;;5117313;28;20099;-75
2021/06/11 04:57:35;;;;;;;16.30;11.75;;;19.00;80.50;;;;;;5068317;28;20383;-76
2021/06/11 05:00:01;;;;;;;14.55;11.02;;;19.10;80.50;;;;;;5098819;28;20031;-76
2021/06/11 05:02:26;;;;;;;14.75;11.57;;;19.10;80.40;;;;;;5095466;28;20035;-76
2021/06/11 05:04:52;;;;;;;11.35;10.02;;;19.20;80.30;;;;;;5078634;28;20034;-76
2021/06/11 05:07:18;;;;;;;13.18;10.40;;;19.20;80.10;;;;;;5095932;28;20365;-76
2021/06/11 05:09:43;;;;;;;14.07;10.15;;;19.30;80.10;;;;;;5078058;28;20046;-76
2021/06/11 05:12:09;;;;;;;14.23;9.30;;;19.30;79.90;;;;;;5087389;28;20047;-76
2021/06/11 05:14:35;;;;;;;13.85;9.90;;;19.30;79.70;;;;;;5075558;28;20028;-76
2021/06/11 05:17:02;;;;;;;12.23;9.27;;;19.40;79.60;;;;;;5048107;28;20047;-76
2021/06/11 05:19:28;;;;;;;14.07;10.02;;;19.50;79.50;;;;;;5098906;28;20028;-77
2021/06/11 05:21:54;;;;;;;12.00;9.57;;;19.50;79.40;;;;;;5096807;28;20039;-76
2021/06/11 05:24:20;;;;;;;13.20;9.07;;;19.50;79.20;;;;;;5075935;28;20036;-76
2021/06/11 05:26:45;;;;;;;12.32;9.48;;;19.60;79.10;;;;;;5085830;28;20491;-76
2021/06/11 05:29:11;;;;;;;12.75;9.35;;;19.60;78.90;;;;;;5093213;28;20475;-77
2021/06/11 05:31:37;;;;;;;11.70;9.13;;;19.70;78.90;;;;;;5063281;28;20461;-77
2021/06/11 05:34:02;;;;;;;10.98;9.05;;;19.80;79.00;;;;;;5089375;28;20480;-77
2021/06/11 05:36:28;;;;;;;14.27;9.57;;;19.80;78.60;;;;;;5105246;28;20494;-76
2021/06/11 05:38:53;;;;;;;10.00;8.68;;;19.90;78.50;;;;;;5075600;28;20031;-77
2021/06/11 05:41:19;;;;;;;14.90;9.50;;;19.90;78.40;;;;;;5059139;28;20392;-79
2021/06/11 05:43:45;;;;;;;14.35;9.45;;;19.90;78.10;;;;;;5075421;28;20040;-78
2021/06/11 05:46:11;;;;;;;12.13;8.57;;;20.00;78.30;;;;;;5075413;28;20024;-76
2021/06/11 05:48:39;;;;;;;13.80;8.63;;;20.00;78.30;;;;;;5088818;28;20411;-75
2021/06/11 05:51:05;;;;;;;11.05;8.48;;;20.10;78.20;;;;;;5078696;28;20023;-75
2021/06/11 05:53:31;;;;;;;13.55;8.63;;;20.10;78.50;;;;;;5111469;28;20052;-75
2021/06/11 05:55:57;;;;;;;11.40;8.30;;;20.10;77.60;;;;;;5078632;28;20100;-75
2021/06/11 05:58:23;;;;;;;12.80;8.35;;;20.20;77.50;;;;;;5078468;28;20034;-75
2021/06/11 06:00:48;;;;;;;10.95;7.63;;;20.20;77.40;;;;;;5077636;28;20032;-75
2021/06/11 06:03:15;;;;;;;10.38;8.05;;;20.30;77.10;;;;;;5076613;28;20035;-75
2021/06/11 06:05:41;;;;;;;11.32;7.88;;;20.30;77.10;;;;;;5095026;28;20110;-76
2021/06/11 06:08:06;;;;;;;10.63;7.68;;;20.40;76.90;;;;;;5113189;28;20446;-75
2021/06/11 06:10:32;;;;;;;11.13;7.15;;;20.40;76.80;;;;;;5095056;28;20089;-74
2021/06/11 06:12:58;;;;;;;10.68;7.32;;;20.50;76.80;;;;;;5113002;28;20051;-75
2021/06/11 06:15:23;;;;;;;9.80;6.72;;;20.50;76.50;;;;;;5073985;28;20052;-75
2021/06/11 06:17:49;;;;;;;15.27;6.43;;;20.60;76.20;;;;;;5065421;28;20048;-75
2021/06/11 06:20:15;;;;;;;9.43;6.65;;;20.60;76.10;;;;;;5074838;28;20036;-75
2021/06/11 06:22:42;;;;;;;8.30;6.97;;;20.70;76.00;;;;;;5095366;28;20031;-75
2021/06/11 06:25:09;;;;;;;10.13;6.85;;;20.80;75.50;;;;;;5078717;28;20457;-75
2021/06/11 06:27:36;;;;;;;9.02;6.55;;;20.90;75.30;;;;;;5080275;28;20036;-75
2021/06/11 06:30:03;;;;;;;8.98;6.55;;;20.90;75.00;;;;;;5115378;28;20028;-75
2021/06/11 06:32:30;;;;;;;9.70;6.25;;;21.00;74.80;;;;;;5094253;28;20024;-75
2021/06/11 06:34:57;;;;;;;7.68;6.32;;;21.10;74.80;;;;;;5061791;28;20035;-75
2021/06/11 06:37:23;;;;;;;10.93;6.78;;;21.20;74.60;;;;;;5078411;28;20069;-75
2021/06/11 06:39:50;;;;;;;8.32;6.55;;;21.30;74.30;;;;;;5078180;28;20024;-75
2021/06/11 06:42:16;;;;;;;7.75;5.88;;;21.40;74.00;;;;;;5062207;28;20076;-75
2021/06/11 06:44:41;;;;;;;10.82;6.35;;;21.50;73.80;;;;;;5098418;28;20152;-75
2021/06/11 06:47:08;;;;;;;9.52;6.40;;;21.50;73.40;;;;;;5081425;28;20031;-75
2021/06/11 06:49:34;;;;;;;10.38;6.10;;;21.60;73.50;;;;;;5115583;28;20024;-75
2021/06/11 06:52:00;;;;;;;9.13;6.22;;;21.70;72.70;;;;;;5098302;28;20039;-75
2021/06/11 06:54:25;;;;;;;8.27;6.15;;;21.80;72.00;;;;;;5098375;28;20028;-75
2021/06/11 06:56:51;;;;;;;10.88;6.28;;;21.90;71.80;;;;;;5116497;28;20034;-75
2021/06/11 06:59:20;;;;;;;11.05;6.07;;;22.00;71.40;;;;;;5116290;28;20019;-75
2021/06/11 07:01:46;;;;;;;10.45;6.15;;;22.20;71.80;;;;;;5081714;28;20038;-75
2021/06/11 07:04:12;;;;;;;10.60;5.75;;;22.40;70.90;;;;;;5116421;28;20036;-75
2021/06/11 07:06:37;;;;;;;8.52;5.45;;;22.50;70.70;;;;;;5081217;28;20093;-75
2021/06/11 07:09:05;;;;;;;9.20;5.70;;;22.50;70.30;;;;;;5098262;28;20028;-75
2021/06/11 07:11:32;;;;;;;9.05;5.45;;;22.60;69.90;;;;;;5097772;28;20446;-75
2021/06/11 07:13:58;;;;;;;7.97;5.20;;;22.60;69.60;;;;;;5095671;28;20040;-75
2021/06/11 07:16:23;;;;;;;8.52;5.57;;;22.70;69.50;;;;;;5077465;28;20028;-76
2021/06/11 07:18:49;;;;;;;5.70;4.70;;;22.80;69.00;;;;;;5077475;28;20035;-75
2021/06/11 07:21:15;;;;;;;9.00;5.40;;;22.80;68.80;;;;;;5095717;28;20039;-75
2021/06/11 07:23:41;;;;;;;8.45;4.90;;;23.00;68.90;;;;;;5077495;28;20114;-76
2021/06/11 07:26:07;;;;;;;9.48;5.20;;;23.00;68.30;;;;;;5082199;28;20023;-75
2021/06/11 07:28:37;;;;;;;11.55;5.50;;;23.10;68.00;;;;;;5072350;28;20059;-75
2021/06/11 07:31:04;;;;;;;10.35;5.32;;;23.10;67.80;;;;;;5077630;28;20031;-75
2021/06/11 07:33:30;;;;;;;10.13;5.78;;;23.20;68.10;;;;;;5076842;28;20027;-75
2021/06/11 07:35:57;;;;;;;11.20;5.72;;;23.30;68.50;;;;;;5077103;28;20024;-75
2021/06/11 07:38:24;;;;;;;11.32;6.38;;;23.30;68.10;;;;;;5094966;28;20020;-76
2021/06/11 07:40:52;;;;;;;10.98;5.97;;;23.20;68.10;;;;;;5099194;28;20456;-75
2021/06/11 07:43:17;;;;;;;9.70;6.23;;;23.30;68.00;;;;;;5090389;28;20034;-75
2021/06/11 07:45:43;;;;;;;15.13;7.50;;;23.40;67.80;;;;;;5094897;28;20262;-76
2021/06/11 07:48:09;;;;;;;14.73;7.45;;;23.40;67.70;;;;;;5060505;28;20407;-75
2021/06/11 07:50:35;;;;;;;15.35;7.47;;;23.30;67.50;;;;;;5095079;28;20103;-75
2021/06/11 07:53:00;;;;;;;15.30;7.60;;;23.30;67.70;;;;;;5044026;28;20472;-76
2021/06/11 07:55:26;;;;;;;19.02;7.82;;;23.40;67.60;;;;;;5076896;28;20380;-76
2021/06/11 07:57:52;;;;;;;18.25;7.70;;;23.40;67.20;;;;;;5060223;28;20070;-76
2021/06/11 08:00:18;;;;;;;16.00;7.72;;;23.50;67.40;;;;;;5080853;28;20036;-76
2021/06/11 08:02:44;;;;;;;12.13;7.57;;;23.60;67.40;;;;;;5091574;28;20597;-75
2021/06/11 08:05:10;;;;;;;16.83;7.13;;;23.70;66.90;;;;;;5063683;28;20036;-75
2021/06/11 08:07:36;;;;;;;16.40;7.35;;;23.80;66.50;;;;;;5059964;28;20056;-75
2021/06/11 08:10:03;;;;;;;10.77;6.75;;;23.90;66.10;;;;;;5093972;28;20497;-76
2021/06/11 08:12:29;;;;;;;12.30;6.45;;;24.10;65.90;;;;;;5093569;28;20068;-76
2021/06/11 08:14:55;;;;;;;11.50;6.55;;;24.30;65.40;;;;;;5076562;28;20078;-76
2021/06/11 08:17:20;;;;;;;12.77;6.55;;;24.40;64.70;;;;;;5098171;28;20483;-76
2021/06/11 08:19:46;;;;;;;11.02;6.57;;;24.60;64.60;;;;;;5082624;28;20085;-76
2021/06/11 08:22:12;;;;;;;8.65;5.55;;;24.80;64.10;;;;;;5058774;28;20035;-76
2021/06/11 08:24:37;;;;;;;12.07;6.25;;;24.70;64.50;;;;;;5093337;28;20118;-76
2021/06/11 08:27:03;;;;;;;13.20;6.15;;;24.50;64.40;;;;;;5093065;28;20032;-76
2021/06/11 08:29:29;;;;;;;13.32;6.13;;;24.50;64.70;;;;;;5095828;28;20103;-76
2021/06/11 08:31:55;;;;;;;9.73;6.63;;;24.60;64.10;;;;;;5061902;28;20031;-76
2021/06/11 08:34:20;;;;;;;7.85;5.47;;;24.90;64.00;;;;;;5090054;28;20484;-76
2021/06/11 08:36:46;;;;;;;11.93;6.45;;;25.00;63.60;;;;;;5078615;28;20034;-76
2021/06/11 08:39:12;;;;;;;7.75;4.85;;;25.10;63.00;;;;;;5065458;28;20028;-76
2021/06/11 08:41:38;;;;;;;12.90;5.70;;;25.10;62.80;;;;;;5064996;28;20040;-76
2021/06/11 08:44:07;;;;;;;7.15;5.32;;;25.10;62.40;;;;;;5113432;28;20483;-76
2021/06/11 08:46:33;;;;;;;9.10;5.00;;;25.00;62.40;;;;;;5095659;28;20460;-76
2021/06/11 08:49:01;;;;;;;8.82;4.63;;;24.90;63.50;;;;;;5058580;28;20028;-76
2021/06/11 08:51:28;;;;;;;9.18;5.15;;;25.00;63.30;;;;;;5081135;28;20510;-75
2021/06/11 08:53:54;;;;;;;7.95;5.38;;;25.10;63.00;;;;;;5055814;28;20507;-75
2021/06/11 08:56:20;;;;;;;12.63;6.13;;;25.10;62.40;;;;;;5084142;28;20024;-75
2021/06/11 08:58:48;;;;;;;14.00;5.72;;;25.10;62.90;;;;;;5111744;28;20031;-77
2021/06/11 09:01:14;;;;;;;10.52;6.70;;;25.20;61.60;;;;;;5094073;28;20023;-75
2021/06/11 09:03:44;;;;;;;9.02;5.85;;;25.40;61.40;;;;;;5064309;28;20040;-76
2021/06/11 09:06:13;;;;;;;12.93;6.28;;;25.50;61.30;;;;;;5062934;28;20028;-75
2021/06/11 09:09:03;;;;;;;12.50;6.70;;;25.70;61.10;;;;;;5089134;28;20069;-74
2021/06/11 09:11:31;;;;;;;9.15;6.45;;;25.80;60.90;;;;;;5095518;28;20068;-74
2021/06/11 09:14:00;;;;;;;11.13;6.10;;;25.90;60.50;;;;;;5065711;28;20055;-75
2021/06/11 09:16:27;;;;;;;12.02;6.43;;;25.90;60.40;;;;;;5075154;28;20493;-74
2021/06/11 09:18:58;;;;;;;12.18;7.00;;;26.00;60.50;;;;;;5080624;28;20054;-75
2021/06/11 09:21:44;;;;;;;11.68;6.70;;;26.10;60.00;;;;;;5071151;28;20028;-74
2021/06/11 09:27:05;;;;;;;10.93;6.93;;;26.30;59.20;;;;;;5072986;28;20039;-74
2021/06/11 09:29:32;;;;;;;10.15;6.95;;;26.50;59.50;;;;;;5085622;28;20114;-74
2021/06/11 09:32:25;;;;;;;10.00;6.45;;;26.60;58.50;;;;;;5091277;28;20480;-74
2021/06/11 09:35:00;;;;;;;13.70;6.80;;;26.70;57.80;;;;;;5091930;28;20454;-75
2021/06/11 09:37:34;;;;;;;8.73;6.20;;;26.50;57.90;;;;;;5093170;28;20043;-74
2021/06/11 09:40:03;;;;;;;12.40;6.60;;;26.50;58.70;;;;;;5059334;28;20082;-75
2021/06/11 09:42:34;;;;;;;10.60;7.05;;;26.60;58.70;;;;;;5071680;28;20111;-75
2021/06/11 09:45:01;;;;;;;12.88;6.30;;;26.80;57.40;;;;;;5084207;28;20035;-76
2021/06/11 09:47:31;;;;;;;8.45;5.53;;;26.90;57.40;;;;;;5091945;28;20024;-76
2021/06/11 09:50:09;;;;;;;10.30;5.90;;;27.00;57.30;;;;;;5089731;28;20032;-76
2021/06/11 09:53:06;;;;;;;9.23;5.65;;;27.20;56.60;;;;;;5084300;28;20035;-76
2021/06/11 09:55:46;;;;;;;9.02;4.80;;;27.30;56.10;;;;;;5076719;28;20052;-77
2021/06/11 09:58:20;;;;;;;10.82;4.70;;;27.30;56.80;;;;;;5077548;28;20035;-76
2021/06/11 10:00:49;;;;;;;6.40;3.38;;;27.50;56.40;;;;;;5096866;28;20557;-76
2021/06/11 10:03:37;;;;;;;6.72;3.50;;;27.60;54.90;;;;;;5088718;28;20028;-76
2021/06/11 10:06:06;;;;;;;5.63;3.05;;;27.70;54.40;;;;;;5089912;28;20020;-77
2021/06/11 10:08:32;;;;;;;5.20;3.03;;;27.70;54.50;;;;;;5083397;28;20063;-76
2021/06/11 10:10:59;;;;;;;7.13;3.58;;;27.80;54.20;;;;;;5088508;28;20048;-76
2021/06/11 10:13:25;;;;;;;9.63;3.25;;;27.90;54.50;;;;;;5094937;28;20382;-76
2021/06/11 10:16:01;;;;;;;5.05;2.47;;;28.00;54.10;;;;;;5095307;28;20077;-76
2021/06/11 10:18:27;;;;;;;5.28;2.72;;;28.00;53.50;;;;;;5094981;28;20073;-76
2021/06/11 10:20:53;;;;;;;5.00;2.40;;;27.90;52.00;;;;;;5096691;28;20477;-76
2021/06/11 10:23:23;;;;;;;4.65;2.78;;;27.90;51.90;;;;;;5087986;28;20036;-76
2021/06/11 10:25:56;;;;;;;6.45;2.38;;;28.00;52.50;;;;;;5090670;28;20055;-77
2021/06/11 10:28:28;;;;;;;5.10;2.30;;;28.00;52.20;;;;;;5096547;28;20082;-77
2021/06/11 10:31:03;;;;;;;5.13;2.30;;;27.90;52.00;;;;;;5096554;28;20069;-77
2021/06/11 10:33:44;;;;;;;5.13;2.20;;;27.70;53.20;;;;;;5092782;28;20162;-77
2021/06/11 10:36:29;;;;;;;5.15;2.58;;;27.70;53.10;;;;;;5083942;28;20047;-78
2021/06/11 10:39:02;;;;;;;8.55;2.60;;;27.70;52.20;;;;;;5085432;28;20031;-76
2021/06/11 10:41:55;;;;;;;5.38;1.80;;;27.80;52.00;;;;;;5076199;28;20417;-77
2021/06/11 10:44:49;;;;;;;6.78;1.98;;;27.90;51.70;;;;;;5076217;28;20139;-77
2021/06/11 10:47:17;;;;;;;3.40;1.60;;;28.10;51.40;;;;;;5093494;28;20031;-77
2021/06/11 10:49:55;;;;;;;5.65;1.90;;;28.30;51.50;;;;;;5079972;28;20070;-77
2021/06/11 10:52:35;;;;;;;4.07;1.92;;;28.50;51.50;;;;;;5076110;28;20016;-77
2021/06/11 10:55:18;;;;;;;4.65;2.08;;;28.60;50.10;;;;;;5075918;28;20032;-77
2021/06/11 10:57:53;;;;;;;4.60;1.98;;;28.50;50.30;;;;;;5083521;28;20023;-77
2021/06/11 11:00:22;;;;;;;4.22;1.85;;;28.30;49.60;;;;;;5085460;28;20028;-77
2021/06/11 11:02:57;;;;;;;5.82;1.80;;;28.10;49.00;;;;;;5094142;28;20114;-77
2021/06/11 11:05:35;;;;;;;2.80;1.50;;;28.10;50.30;;;;;;5094427;28;20043;-77
2021/06/11 11:08:05;;;;;;;6.28;1.52;;;28.20;51.30;;;;;;5095094;28;20024;-77
2021/06/11 11:10:48;;;;;;;1.63;1.25;;;28.40;50.30;;;;;;5090879;28;20052;-77
2021/06/11 11:13:19;;;;;;;2.22;1.33;;;28.40;49.40;;;;;;5092602;28;20040;-76
2021/06/11 11:15:48;;;;;;;2.10;1.05;;;28.20;49.30;;;;;;5096115;28;20035;-77
2021/06/11 11:18:19;;;;;;;2.20;1.27;;;28.10;49.40;;;;;;5079668;28;20020;-77
2021/06/11 11:20:45;;;;;;;1.38;1.00;;;28.20;48.80;;;;;;5075830;28;20060;-77
2021/06/11 11:23:13;;;;;;;2.78;1.42;;;28.40;49.60;;;;;;5076637;28;20052;-77
2021/06/11 11:25:40;;;;;;;1.98;1.30;;;28.60;49.10;;;;;;5086228;28;20078;-77
2021/06/11 11:28:07;;;;;;;3.45;1.38;;;28.80;49.40;;;;;;5093320;28;20044;-78
2021/06/11 11:30:33;;;;;;;4.47;1.20;;;28.80;49.20;;;;;;5095169;28;20036;-76
2021/06/11 11:33:01;;;;;;;1.95;1.50;;;28.60;48.80;;;;;;5095405;28;20410;-78
2021/06/11 11:35:31;;;;;;;2.22;1.40;;;28.60;48.90;;;;;;5089272;28;20024;-77
2021/06/11 11:38:02;;;;;;;1.48;1.10;;;28.70;48.10;;;;;;5082748;28;20031;-79
2021/06/11 11:40:29;;;;;;;3.80;1.35;;;28.90;48.50;;;;;;5086916;28;20025;-77
2021/06/11 11:42:58;;;;;;;1.48;0.90;;;29.00;48.10;;;;;;5084843;28;20129;-79
2021/06/11 11:45:26;;;;;;;3.17;1.30;;;29.20;49.20;;;;;;5088711;28;20108;-78
2021/06/11 11:47:53;;;;;;;5.50;1.40;;;29.50;48.50;;;;;;5092528;28;20032;-78
2021/06/11 11:50:18;;;;;;;2.65;1.40;;;29.70;46.90;;;;;;5090559;28;20449;-78
2021/06/11 11:52:44;;;;;;;2.47;1.13;;;29.60;45.80;;;;;;5093698;28;20107;-76
2021/06/11 11:55:10;;;;;;;4.07;1.02;;;29.40;46.80;;;;;;5088116;28;20108;-79
2021/06/11 11:57:36;;;;;;;2.13;1.05;;;29.00;47.30;;;;;;5079522;28;20031;-79
2021/06/11 12:00:04;;;;;;;2.55;0.95;;;28.70;48.80;;;;;;5079757;28;20048;-80
2021/06/11 12:02:30;;;;;;;;;;;28.70;49.70;;;;;;5078367;28;20153;-81
2021/06/11 12:04:55;;;;;;;3.63;1.05;;;28.60;48.80;;;;;;5080507;28;19941;-80
2021/06/11 12:07:21;;;;;;;1.77;0.98;;;28.40;48.90;;;;;;5079315;28;20500;-79
2021/06/11 12:09:47;;;;;;;1.30;1.00;;;28.50;49.20;;;;;;5081064;28;20038;-79
2021/06/11 12:12:12;;;;;;;1.08;0.90;;;28.60;48.70;;;;;;5066863;28;20086;-80
2021/06/11 12:14:38;;;;;;;4.70;0.90;;;28.60;47.80;;;;;;5101467;28;20059;-79
2021/06/11 12:17:04;;;;;;;3.65;1.13;;;28.50;48.40;;;;;;5099472;28;20032;-79
2021/06/11 12:19:29;;;;;;;1.67;0.93;;;28.40;48.40;;;;;;5080352;28;20035;-80
2021/06/11 12:21:55;;;;;;;1.17;0.93;;;28.30;48.00;;;;;;5102154;28;20073;-79
2021/06/11 12:24:20;;;;;;;1.90;1.00;;;28.20;48.60;;;;;;5068545;28;20110;-80
2021/06/11 12:26:46;;;;;;;3.30;1.20;;;28.20;48.50;;;;;;5100878;28;20067;-80
2021/06/11 12:29:13;;;;;;;4.47;1.13;;;28.20;48.30;;;;;;5100722;28;20031;-79
2021/06/11 12:31:39;;;;;;;3.90;1.00;;;28.10;49.70;;;;;;5082174;28;20024;-80
2021/06/11 12:34:05;;;;;;;1.33;1.00;;;28.10;49.70;;;;;;5102019;28;20035;-79
2021/06/11 12:36:31;;;;;;;3.35;1.13;;;28.30;49.10;;;;;;5101832;28;20032;-80
2021/06/11 12:38:56;;;;;;;1.58;1.10;;;28.50;48.40;;;;;;5100527;28;20740;-80
2021/06/11 12:41:22;;;;;;;3.53;1.15;;;28.50;47.90;;;;;;5102739;28;20027;-80
2021/06/11 12:46:32;;;;;;;3.03;1.30;;;28.90;48.10;;;;;;5100815;28;20421;-78
2021/06/11 12:48:58;;;;;;;2.63;1.25;;;29.20;46.90;;;;;;5084642;28;20110;-79
2021/06/11 12:51:24;;;;;;;2.25;0.88;;;29.40;46.80;;;;;;5081570;28;20039;-80